Time;durP1;ratioP1;P1;durP2;ratioP2;P2;SDS_P1;SDS_P2;PMS_P1;PMS_P2;Temp;Humidity;BMP_temperature;BMP_pressure;BME280_temperature;BME280_humidity;BME280_pressure;Samples;Min_cycle;Max_cycle;Signal;HPM_P1;HPM_P2
2023/05/25 00:03:09;;;;;;;15.43;4.85;;;;;11.90;96736.00;;;;8203936;28;20330;-65
2023/05/25 00:07:12;;;;;;;15.07;4.70;;;;;11.90;96749.00;;;;8195745;28;20286;-66
2023/05/25 00:11:22;;;;;;;15.70;5.57;;;;;12.00;96744.00;;;;8194109;28;20212;-66
2023/05/25 00:15:25;;;;;;;15.70;5.18;;;;;12.00;96743.00;;;;8195793;28;20291;-66
2023/05/25 00:19:32;;;;;;;14.05;4.65;;;;;12.00;96743.00;;;;8181952;28;20578;-71
2023/05/25 00:23:38;;;;;;;15.02;5.18;;;;;12.00;96732.00;;;;8189496;28;20208;-68
2023/05/25 00:27:46;;;;;;;13.93;4.90;;;;;12.00;96728.00;;;;8196934;28;20237;-67
2023/05/25 00:31:50;;;;;;;15.38;4.95;;;;;12.00;96740.00;;;;8201400;28;20303;-66
2023/05/25 00:35:54;;;;;;;15.85;5.13;;;;;11.90;96718.00;;;;8191265;28;20214;-65
2023/05/25 00:39:57;;;;;;;14.38;5.05;;;;;11.90;96715.00;;;;8218070;28;20655;-67
2023/05/25 00:44:05;;;;;;;12.00;5.07;;;;;12.00;96721.00;;;;8219755;28;20204;-64
2023/05/25 00:48:17;;;;;;;14.18;5.40;;;;;12.00;96720.00;;;;8219874;28;20934;-69
2023/05/25 00:52:20;;;;;;;16.27;5.00;;;;;12.00;96724.00;;;;8211618;28;20953;-65
2023/05/25 00:56:28;;;;;;;13.57;4.68;;;;;12.00;96716.00;;;;8196033;28;20251;-66
2023/05/25 01:00:34;;;;;;;17.02;5.40;;;;;12.00;96711.00;;;;8212571;28;20300;-68
2023/05/25 01:04:41;;;;;;;16.77;5.40;;;;;12.00;96715.00;;;;8207377;28;20236;-65
2023/05/25 01:08:51;;;;;;;16.95;5.03;;;;;12.00;96715.00;;;;8202225;28;20264;-63
2023/05/25 01:12:57;;;;;;;16.60;5.60;;;;;12.00;96712.00;;;;8201787;28;20931;-65
2023/05/25 01:17:02;;;;;;;12.38;4.53;;;;;12.00;96718.00;;;;8199013;28;20299;-64
2023/05/25 01:21:22;;;;;;;12.27;4.50;;;;;12.00;96712.00;;;;8209652;28;20242;-67
2023/05/25 01:25:31;;;;;;;12.02;4.97;;;;;12.00;96709.00;;;;8208268;28;20228;-66
2023/05/25 01:29:40;;;;;;;18.98;5.80;;;;;12.00;96721.00;;;;8215709;28;20239;-65
2023/05/25 01:33:45;;;;;;;17.83;5.00;;;;;12.10;96717.00;;;;8199925;28;20301;-64
2023/05/25 01:37:54;;;;;;;16.50;5.45;;;;;12.10;96721.00;;;;8202263;28;20291;-64
2023/05/25 01:41:57;;;;;;;13.38;4.93;;;;;12.00;96719.00;;;;8209708;28;20248;-65
2023/05/25 01:46:09;;;;;;;14.27;4.53;;;;;12.00;96714.00;;;;8194580;28;20292;-66
2023/05/25 01:50:18;;;;;;;11.77;5.45;;;;;11.90;96712.00;;;;8204399;28;20201;-66
2023/05/25 01:54:40;;;;;;;23.40;5.85;;;;;11.90;96709.00;;;;8208422;28;20288;-64
2023/05/25 01:58:46;;;;;;;20.38;6.03;;;;;11.90;96703.00;;;;8204921;28;20215;-65
2023/05/25 02:02:53;;;;;;;12.52;5.13;;;;;11.90;96707.00;;;;8192212;28;20236;-68
2023/05/25 02:06:58;;;;;;;16.77;5.55;;;;;11.90;96714.00;;;;8207146;28;20706;-65
2023/05/25 02:11:03;;;;;;;16.88;5.35;;;;;11.90;96714.00;;;;8194859;28;20297;-66
2023/05/25 02:15:09;;;;;;;21.88;5.90;;;;;11.90;96710.00;;;;8195656;28;20209;-65
2023/05/25 02:19:13;;;;;;;15.35;5.45;;;;;11.80;96716.00;;;;8197125;28;20285;-65
2023/05/25 02:23:20;;;;;;;16.65;6.00;;;;;11.80;96711.00;;;;8203874;28;20206;-65
2023/05/25 02:27:25;;;;;;;13.88;5.25;;;;;11.80;96706.00;;;;8193246;28;20870;-69
2023/05/25 02:31:28;;;;;;;25.30;6.47;;;;;11.70;96694.00;;;;8200046;28;20786;-69
2023/05/25 02:35:34;;;;;;;22.77;6.35;;;;;11.70;96685.00;;;;8197345;28;20221;-66
2023/05/25 02:39:40;;;;;;;16.65;6.07;;;;;11.70;96695.00;;;;8199882;28;20733;-63
2023/05/25 02:43:45;;;;;;;14.57;5.32;;;;;11.60;96705.00;;;;8206217;28;20220;-66
2023/05/25 02:47:48;;;;;;;14.32;5.28;;;;;11.60;96705.00;;;;8201127;28;22006;-66
2023/05/25 02:51:54;;;;;;;18.45;6.03;;;;;11.60;96706.00;;;;8205091;28;20202;-66
2023/05/25 02:55:59;;;;;;;16.85;5.85;;;;;11.60;96707.00;;;;8208115;28;20293;-67
2023/05/25 03:04:36;;;;;;;16.73;5.50;;;;;11.60;96716.00;;;;8258491;23;20275;-70
2023/05/25 03:08:39;;;;;;;13.77;5.35;;;;;11.60;96716.00;;;;8241006;28;20282;-63
2023/05/25 03:12:44;;;;;;;17.58;5.50;;;;;11.60;96721.00;;;;8239680;28;20223;-65
2023/05/25 03:16:52;;;;;;;17.55;5.88;;;;;11.60;96721.00;;;;8247433;28;20654;-69
2023/05/25 03:20:57;;;;;;;16.33;5.60;;;;;11.60;96723.00;;;;8243631;28;20211;-65
2023/05/25 03:25:00;;;;;;;21.38;6.25;;;;;11.60;96724.00;;;;8241404;28;20299;-68
2023/05/25 03:29:05;;;;;;;17.02;6.07;;;;;11.60;96736.00;;;;8245007;28;20228;-67
2023/05/25 03:33:13;;;;;;;19.15;5.70;;;;;11.60;96726.00;;;;8236097;28;20431;-64
2023/05/25 03:37:17;;;;;;;23.60;6.28;;;;;11.60;96727.00;;;;8250787;28;20218;-63
2023/05/25 03:41:22;;;;;;;18.20;6.07;;;;;11.60;96721.00;;;;8246470;28;20674;-64
2023/05/25 03:45:25;;;;;;;13.27;5.90;;;;;11.60;96731.00;;;;8234093;28;20234;-68
2023/05/25 03:49:31;;;;;;;23.73;6.38;;;;;11.60;96729.00;;;;8247604;28;20242;-72
2023/05/25 03:53:34;;;;;;;15.73;5.82;;;;;11.60;96735.00;;;;8240556;28;20210;-65
2023/05/25 03:57:37;;;;;;;22.27;6.40;;;;;11.60;96731.00;;;;8236971;28;20234;-69
2023/05/25 04:01:40;;;;;;;17.38;6.40;;;;;11.60;96733.00;;;;8252904;28;20319;-65
2023/05/25 04:05:45;;;;;;;19.80;5.75;;;;;11.60;96733.00;;;;8211796;28;20338;-64
2023/05/25 04:09:49;;;;;;;16.98;6.00;;;;;11.60;96742.00;;;;8211367;28;20210;-63
2023/05/25 04:13:52;;;;;;;18.13;5.50;;;;;11.60;96746.00;;;;8212094;28;20315;-64
2023/05/25 04:17:58;;;;;;;20.92;7.93;;;;;11.70;96752.00;;;;8213028;28;20230;-64
2023/05/25 04:22:05;;;;;;;19.25;5.90;;;;;11.70;96745.00;;;;8191937;28;20748;-67
2023/05/25 04:26:14;;;;;;;17.58;5.90;;;;;11.80;96739.00;;;;8219985;28;20251;-65
2023/05/25 04:30:17;;;;;;;17.52;5.93;;;;;11.80;96754.00;;;;8206075;28;20775;-66
2023/05/25 04:34:22;;;;;;;12.75;5.93;;;;;12.00;96750.00;;;;8221392;28;20262;-67
2023/05/25 04:38:27;;;;;;;23.88;6.95;;;;;12.00;96754.00;;;;8226236;28;20207;-66
2023/05/25 04:42:30;;;;;;;15.27;5.30;;;;;12.10;96764.00;;;;8211751;28;20213;-69
2023/05/25 04:46:36;;;;;;;25.95;6.43;;;;;12.20;96755.00;;;;8215369;28;20234;-68
2023/05/25 04:50:40;;;;;;;26.33;6.63;;;;;12.20;96766.00;;;;8221743;28;20208;-66
2023/05/25 04:54:45;;;;;;;17.50;5.50;;;;;12.30;96770.00;;;;8209200;28;20348;-65
2023/05/25 04:58:48;;;;;;;12.77;5.70;;;;;12.80;96766.00;;;;8217256;28;20200;-65
2023/05/25 05:02:52;;;;;;;19.50;6.40;;;;;13.20;96770.00;;;;8201673;28;20340;-69
2023/05/25 05:06:58;;;;;;;16.67;5.65;;;;;13.60;96774.00;;;;8224753;28;20683;-68
2023/05/25 05:11:04;;;;;;;16.02;5.35;;;;;13.70;96780.00;;;;8222446;28;20219;-67
2023/05/25 05:15:08;;;;;;;16.38;6.70;;;;;13.60;96785.00;;;;8206447;28;20265;-64
2023/05/25 05:19:17;;;;;;;22.70;6.53;;;;;13.90;96791.00;;;;8223588;28;20208;-65
2023/05/25 05:23:20;;;;;;;18.77;5.85;;;;;14.00;96785.00;;;;8224024;28;20206;-66
2023/05/25 05:27:27;;;;;;;20.67;5.70;;;;;14.10;96795.00;;;;8216086;28;20253;-69
2023/05/25 05:31:30;;;;;;;13.13;6.05;;;;;14.30;96807.00;;;;8220738;28;20537;-66
2023/05/25 05:35:35;;;;;;;16.30;5.28;;;;;14.30;96804.00;;;;8211069;28;20225;-64
2023/05/25 05:39:38;;;;;;;22.77;7.45;;;;;14.30;96801.00;;;;8219923;28;20668;-66
2023/05/25 05:43:45;;;;;;;14.70;5.90;;;;;14.40;96806.00;;;;8219179;28;20288;-64
2023/05/25 05:47:49;;;;;;;14.68;5.72;;;;;14.40;96807.00;;;;8223276;28;20238;-64
2023/05/25 05:51:52;;;;;;;13.75;4.95;;;;;14.30;96802.00;;;;8208417;28;20210;-64
2023/05/25 05:55:58;;;;;;;14.20;5.22;;;;;14.30;96804.00;;;;8222049;28;20701;-64
2023/05/25 06:00:05;;;;;;;17.50;5.97;;;;;14.40;96816.00;;;;8201596;28;20244;-65
2023/05/25 06:04:19;;;;;;;17.85;6.00;;;;;14.70;96809.00;;;;8212468;28;20243;-68
2023/05/25 06:08:23;;;;;;;18.58;5.60;;;;;15.00;96804.00;;;;8210212;28;20234;-64
2023/05/25 06:12:29;;;;;;;19.10;5.32;;;;;15.20;96807.00;;;;8209382;28;20298;-63
2023/05/25 06:16:36;;;;;;;18.23;6.20;;;;;15.30;96801.00;;;;8210499;28;20218;-64
2023/05/25 06:20:39;;;;;;;20.23;6.30;;;;;15.40;96804.00;;;;8221621;28;20246;-66
2023/05/25 06:24:43;;;;;;;21.73;5.57;;;;;15.40;96798.00;;;;8207971;28;20207;-67
2023/05/25 06:28:48;;;;;;;13.55;5.70;;;;;15.80;96816.00;;;;8221077;28;20333;-62
2023/05/25 06:32:54;;;;;;;19.77;5.25;;;;;16.30;96811.00;;;;8204520;28;20230;-65
2023/05/25 06:36:59;;;;;;;28.40;7.32;;;;;16.70;96827.00;;;;8221680;28;20211;-66
2023/05/25 06:41:08;;;;;;;20.55;6.80;;;;;16.90;96820.00;;;;8215892;28;20299;-65
2023/05/25 06:45:11;;;;;;;16.00;6.95;;;;;17.10;96824.00;;;;8216701;28;20203;-65
2023/05/25 06:49:16;;;;;;;20.83;5.85;;;;;17.40;96823.00;;;;8221694;28;20290;-63
2023/05/25 06:53:22;;;;;;;19.60;5.90;;;;;17.60;96829.00;;;;8212577;28;20202;-67
2023/05/25 06:57:28;;;;;;;13.15;6.13;;;;;17.80;96828.00;;;;8219453;28;20943;-66
2023/05/25 07:01:35;;;;;;;18.73;6.28;;;;;17.80;96827.00;;;;8190140;28;20200;-63
2023/05/25 07:05:42;;;;;;;15.63;6.07;;;;;17.90;96833.00;;;;8213825;28;20239;-68
2023/05/25 07:09:53;;;;;;;13.63;5.82;;;;;18.00;96834.00;;;;8220995;28;20605;-65
2023/05/25 07:13:59;;;;;;;16.00;5.53;;;;;18.00;96839.00;;;;8214559;28;20316;-66
2023/05/25 07:18:02;;;;;;;15.35;5.90;;;;;18.10;96846.00;;;;8216931;28;20209;-65
2023/05/25 07:22:07;;;;;;;11.70;5.32;;;;;18.10;96852.00;;;;8193377;28;20767;-67
2023/05/25 07:26:10;;;;;;;18.65;5.30;;;;;18.10;96835.00;;;;8204812;28;20290;-63
2023/05/25 07:30:15;;;;;;;21.52;6.60;;;;;18.40;96848.00;;;;8200922;28;20767;-66
2023/05/25 07:34:23;;;;;;;18.30;5.88;;;;;18.60;96849.00;;;;8220831;28;20230;-66
2023/05/25 07:38:32;;;;;;;14.65;5.50;;;;;19.00;96846.00;;;;8202683;28;20211;-65
2023/05/25 07:42:39;;;;;;;19.75;6.07;;;;;19.10;96860.00;;;;8212357;28;20212;-64
2023/05/25 07:46:42;;;;;;;19.48;5.60;;;;;19.20;96855.00;;;;8211131;28;20661;-63
2023/05/25 07:50:46;;;;;;;15.48;4.63;;;;;19.60;96855.00;;;;8219995;28;20327;-68
2023/05/25 07:54:50;;;;;;;13.27;5.93;;;;;20.10;96867.00;;;;8213056;28;20203;-62
2023/05/25 07:58:55;;;;;;;16.40;5.40;;;;;20.70;96862.00;;;;8184899;28;20212;-65
2023/05/25 08:02:59;;;;;;;12.05;4.80;;;;;21.20;96866.00;;;;8209105;28;20254;-62
2023/05/25 08:07:03;;;;;;;16.45;6.07;;;;;21.30;96868.00;;;;8220057;28;20233;-65
2023/05/25 08:11:10;;;;;;;16.23;6.28;;;;;21.20;96871.00;;;;8215668;28;20296;-64
2023/05/25 08:15:13;;;;;;;16.90;5.85;;;;;21.20;96870.00;;;;8210954;28;20213;-69
2023/05/25 08:19:16;;;;;;;16.45;5.68;;;;;21.00;96870.00;;;;8216509;28;20199;-63
2023/05/25 08:23:21;;;;;;;19.08;5.60;;;;;21.00;96880.00;;;;8187943;28;20642;-62
2023/05/25 08:27:29;;;;;;;19.10;5.88;;;;;21.10;96873.00;;;;8206434;28;20290;-64
2023/05/25 08:31:37;;;;;;;11.35;5.35;;;;;21.40;96870.00;;;;8204450;28;20208;-63
2023/05/25 08:35:42;;;;;;;14.13;5.30;;;;;21.30;96865.00;;;;8213519;28;20695;-66
2023/05/25 08:39:48;;;;;;;9.65;4.95;;;;;21.60;96868.00;;;;8192409;28;20609;-65
2023/05/25 08:43:53;;;;;;;15.38;5.40;;;;;22.00;96871.00;;;;8209355;28;20201;-62
2023/05/25 08:47:59;;;;;;;9.55;4.68;;;;;22.10;96871.00;;;;8174412;28;20236;-68
2023/05/25 08:52:04;;;;;;;17.67;5.57;;;;;22.30;96864.00;;;;8209062;28;20234;-64
2023/05/25 08:56:19;;;;;;;14.77;5.32;;;;;22.60;96876.00;;;;8216221;28;20664;-65
2023/05/25 09:00:28;;;;;;;13.90;5.22;;;;;22.90;96874.00;;;;8210542;28;20261;-62
2023/05/25 09:04:35;;;;;;;16.33;5.60;;;;;23.00;96875.00;;;;8211151;28;20346;-65
2023/05/25 09:08:41;;;;;;;17.40;5.53;;;;;23.40;96872.00;;;;8212559;28;20322;-64
2023/05/25 09:12:44;;;;;;;12.20;5.38;;;;;23.90;96877.00;;;;8218854;28;20291;-63
2023/05/25 09:16:50;;;;;;;13.65;5.68;;;;;24.30;96882.00;;;;8205135;28;20207;-66
2023/05/25 09:21:00;;;;;;;16.90;4.95;;;;;24.00;96878.00;;;;8214266;28;20202;-64
2023/05/25 09:25:10;;;;;;;11.57;4.80;;;;;23.90;96877.00;;;;8221585;28;20207;-62
2023/05/25 09:29:13;;;;;;;17.17;5.60;;;;;24.10;96880.00;;;;8220066;28;20242;-65
2023/05/25 09:33:19;;;;;;;15.23;5.38;;;;;24.00;96882.00;;;;8212075;28;20262;-66
2023/05/25 09:37:25;;;;;;;11.85;5.20;;;;;24.40;96876.00;;;;8217188;28;20210;-64
2023/05/25 09:41:28;;;;;;;14.38;5.97;;;;;24.50;96883.00;;;;8216104;28;20215;-64
2023/05/25 09:45:34;;;;;;;10.18;5.07;;;;;24.80;96887.00;;;;8207828;28;20642;-64
2023/05/25 09:49:43;;;;;;;11.30;5.25;;;;;25.20;96890.00;;;;8214711;28;20271;-67
2023/05/25 09:53:49;;;;;;;13.48;4.68;;;;;25.10;96896.00;;;;8206588;28;20275;-66
2023/05/25 09:57:54;;;;;;;11.95;4.70;;;;;25.40;96898.00;;;;8208949;28;20295;-66
2023/05/25 10:01:58;;;;;;;11.75;4.88;;;;;25.50;96896.00;;;;8214709;28;20235;-64
2023/05/25 10:06:03;;;;;;;10.77;4.43;;;;;26.30;96887.00;;;;8222346;28;20290;-64
2023/05/25 10:10:10;;;;;;;9.60;4.45;;;;;26.10;96888.00;;;;8210052;28;20258;-65
2023/05/25 10:14:24;;;;;;;12.55;4.80;;;;;26.70;96893.00;;;;8211845;28;20219;-68
2023/05/25 10:18:35;;;;;;;12.30;4.95;;;;;26.60;96889.00;;;;8218351;28;20229;-70
2023/05/25 10:22:45;;;;;;;10.05;4.47;;;;;26.50;96889.00;;;;8214407;28;20204;-65
2023/05/25 10:26:53;;;;;;;6.55;3.95;;;;;27.10;96894.00;;;;8208264;28;20645;-65
2023/05/25 10:30:57;;;;;;;10.27;4.38;;;;;27.40;96909.00;;;;8216131;28;20322;-64
2023/05/25 10:35:01;;;;;;;13.02;4.82;;;;;27.30;96904.00;;;;8222750;28;20215;-66
2023/05/25 10:39:07;;;;;;;9.52;4.15;;;;;27.20;96901.00;;;;8208576;28;20638;-63
2023/05/25 10:43:13;;;;;;;8.77;4.47;;;;;26.60;96904.00;;;;8218201;28;20653;-64
2023/05/25 10:47:19;;;;;;;9.35;4.43;;;;;26.20;96893.00;;;;8223024;28;20286;-63
2023/05/25 10:51:22;;;;;;;10.73;4.50;;;;;26.90;96887.00;;;;8206658;28;20257;-64
2023/05/25 10:55:41;;;;;;;9.80;4.85;;;;;27.70;96895.00;;;;8217454;28;20262;-65
2023/05/25 10:59:49;;;;;;;7.63;4.50;;;;;28.10;96890.00;;;;8215145;28;20218;-64
2023/05/25 11:03:56;;;;;;;16.13;4.78;;;;;27.90;96885.00;;;;8213059;28;20704;-68
2023/05/25 11:08:03;;;;;;;9.20;4.55;;;;;27.70;96887.00;;;;8221560;28;20234;-64
2023/05/25 11:12:21;;;;;;;9.70;4.28;;;;;28.70;96890.00;;;;8220375;28;20274;-66
2023/05/25 11:16:34;;;;;;;10.07;4.70;;;;;28.10;96892.00;;;;8214295;28;20586;-65
2023/05/25 11:20:38;;;;;;;14.02;4.53;;;;;28.00;96887.00;;;;8214579;28;20207;-68
2023/05/25 11:24:44;;;;;;;11.05;5.22;;;;;28.40;96885.00;;;;8212860;28;20211;-65
2023/05/25 11:28:53;;;;;;;8.82;4.85;;;;;28.70;96887.00;;;;8208346;28;20238;-65
2023/05/25 11:33:01;;;;;;;15.05;4.30;;;;;28.60;96888.00;;;;8221460;28;20745;-65
2023/05/25 11:37:04;;;;;;;13.05;4.72;;;;;28.50;96894.00;;;;8206300;28;20282;-66
2023/05/25 11:41:18;;;;;;;11.82;5.05;;;;;28.40;96885.00;;;;8211590;28;20299;-67
2023/05/25 11:45:25;;;;;;;11.00;4.80;;;;;28.40;96872.00;;;;8222006;28;20290;-67
2023/05/25 11:49:31;;;;;;;11.07;5.20;;;;;28.50;96877.00;;;;8205859;28;20246;-65
2023/05/25 11:53:35;;;;;;;9.05;4.97;;;;;28.00;96871.00;;;;8217622;28;20203;-64
2023/05/25 11:57:42;;;;;;;10.02;4.80;;;;;28.00;96882.00;;;;8205589;28;20211;-66
2023/05/25 12:01:57;;;;;;;9.60;4.32;;;;;29.00;96873.00;;;;8211499;28;20204;-65
2023/05/25 12:06:03;;;;;;;10.30;4.50;;;;;29.90;96871.00;;;;8217931;28;20200;-67
2023/05/25 12:10:13;;;;;;;9.55;4.60;;;;;29.40;96870.00;;;;8205626;28;20228;-68
2023/05/25 12:14:17;;;;;;;12.88;4.78;;;;;29.60;96871.00;;;;8219753;28;20732;-67
2023/05/25 12:18:21;;;;;;;7.43;4.63;;;;;29.80;96868.00;;;;8206542;28;20606;-65
2023/05/25 12:22:27;;;;;;;7.35;4.18;;;;;30.00;96863.00;;;;8209027;28;20319;-64
2023/05/25 12:26:30;;;;;;;17.65;5.32;;;;;29.80;96864.00;;;;8213752;28;20208;-67
2023/05/25 12:30:33;;;;;;;6.45;4.40;;;;;28.90;96862.00;;;;8215206;28;20782;-64
2023/05/25 12:34:40;;;;;;;7.43;4.30;;;;;27.80;96867.00;;;;8213122;28;20212;-64
2023/05/25 12:39:00;;;;;;;14.68;5.47;;;;;26.70;96855.00;;;;8210879;28;20210;-69
2023/05/25 12:43:07;;;;;;;9.20;4.53;;;;;26.20;96871.00;;;;8213606;28;20227;-63
2023/05/25 12:47:13;;;;;;;9.23;4.53;;;;;25.80;96862.00;;;;8206329;28;20215;-65
2023/05/25 12:51:18;;;;;;;10.57;4.60;;;;;25.40;96850.00;;;;8226570;28;20274;-64
2023/05/25 12:55:28;;;;;;;10.40;4.72;;;;;25.30;96845.00;;;;8218941;28;20227;-63
2023/05/25 12:59:32;;;;;;;8.90;4.43;;;;;25.20;96848.00;;;;8219356;28;20293;-64
2023/05/25 13:03:35;;;;;;;7.28;4.40;;;;;25.40;96849.00;;;;8218040;28;20239;-67
2023/05/25 13:07:41;;;;;;;8.30;4.78;;;;;25.40;96837.00;;;;8217138;28;20614;-67
2023/05/25 13:11:44;;;;;;;20.65;5.07;;;;;25.60;96847.00;;;;8217342;28;20673;-64
2023/05/25 13:15:47;;;;;;;11.70;4.72;;;;;25.90;96861.00;;;;8225616;28;20213;-66
2023/05/25 13:19:50;;;;;;;13.18;4.80;;;;;26.40;96854.00;;;;8217446;28;21009;-63
2023/05/25 13:23:55;;;;;;;10.25;4.40;;;;;27.50;96853.00;;;;8219538;28;20207;-65
2023/05/25 13:28:01;;;;;;;8.27;5.05;;;;;27.80;96851.00;;;;8225312;28;20214;-66
2023/05/25 13:32:04;;;;;;;11.45;5.10;;;;;28.00;96852.00;;;;8217004;28;20326;-68
2023/05/25 13:36:12;;;;;;;8.23;4.65;;;;;28.60;96854.00;;;;8216548;28;20207;-67
2023/05/25 13:40:19;;;;;;;7.65;4.55;;;;;28.40;96848.00;;;;8202322;28;20232;-68
2023/05/25 13:44:24;;;;;;;7.90;4.63;;;;;28.30;96847.00;;;;8214800;28;20348;-65
2023/05/25 13:48:30;;;;;;;15.07;4.40;;;;;28.80;96844.00;;;;8224434;28;20199;-64
2023/05/25 13:52:36;;;;;;;10.20;4.22;;;;;28.90;96838.00;;;;8213457;28;20574;-64
2023/05/25 13:56:41;;;;;;;9.98;4.55;;;;;28.90;96831.00;;;;8211398;28;20639;-65
2023/05/25 14:00:51;;;;;;;8.10;4.60;;;;;29.00;96836.00;;;;8216960;28;20227;-68
2023/05/25 14:04:54;;;;;;;6.22;4.00;;;;;28.60;96828.00;;;;8224905;28;20223;-65
2023/05/25 14:08:57;;;;;;;6.40;4.25;;;;;28.60;96836.00;;;;8216362;28;20626;-64
2023/05/25 14:13:04;;;;;;;8.52;4.18;;;;;28.80;96821.00;;;;8215714;28;20255;-65
2023/05/25 14:17:07;;;;;;;6.47;4.43;;;;;28.60;96825.00;;;;8217768;28;20209;-67
2023/05/25 14:21:11;;;;;;;12.13;4.22;;;;;28.70;96830.00;;;;8216596;28;20211;-66
2023/05/25 14:25:15;;;;;;;9.60;4.22;;;;;29.00;96825.00;;;;8213899;28;20200;-65
2023/05/25 14:29:20;;;;;;;6.85;4.13;;;;;29.40;96815.00;;;;8215360;28;20290;-65
2023/05/25 14:33:25;;;;;;;8.38;4.82;;;;;29.10;96822.00;;;;8217074;28;20235;-64
2023/05/25 14:37:29;;;;;;;9.45;4.65;;;;;28.90;96819.00;;;;8210240;28;20207;-63
2023/05/25 14:41:32;;;;;;;9.70;5.07;;;;;28.50;96816.00;;;;8214962;28;20242;-65
2023/05/25 14:45:42;;;;;;;9.68;4.18;;;;;28.50;96809.00;;;;8208771;28;20295;-65
2023/05/25 14:49:46;;;;;;;7.45;3.83;;;;;28.40;96814.00;;;;8218302;28;20254;-64
2023/05/25 14:53:51;;;;;;;7.80;4.47;;;;;28.40;96814.00;;;;8221194;28;20212;-63
2023/05/25 14:57:55;;;;;;;9.57;4.50;;;;;28.90;96813.00;;;;8219757;28;20207;-64
2023/05/25 15:01:59;;;;;;;8.48;4.32;;;;;28.80;96819.00;;;;8189650;28;20286;-65
2023/05/25 15:06:03;;;;;;;5.75;3.88;;;;;28.60;96818.00;;;;8212375;28;20267;-65
2023/05/25 15:10:11;;;;;;;10.05;4.30;;;;;28.40;96812.00;;;;8216837;28;20338;-64
2023/05/25 15:14:18;;;;;;;6.82;3.72;;;;;28.40;96813.00;;;;8197401;28;20262;-65
2023/05/25 15:18:25;;;;;;;9.18;4.35;;;;;28.30;96800.00;;;;8222184;28;20199;-63
2023/05/25 15:22:28;;;;;;;9.52;3.95;;;;;28.20;96802.00;;;;8206971;28;20247;-67
2023/05/25 15:26:31;;;;;;;7.03;4.15;;;;;28.00;96810.00;;;;8211935;28;20215;-66
2023/05/25 15:30:38;;;;;;;10.93;4.30;;;;;28.10;96817.00;;;;8202592;28;20241;-67
2023/05/25 15:34:43;;;;;;;8.48;4.50;;;;;28.20;96810.00;;;;8208779;28;20249;-65
2023/05/25 15:38:47;;;;;;;8.20;4.43;;;;;28.20;96812.00;;;;8220994;28;20681;-67
2023/05/25 15:42:51;;;;;;;8.52;4.88;;;;;28.20;96809.00;;;;8213385;28;20246;-66
2023/05/25 15:46:54;;;;;;;6.20;3.90;;;;;28.30;96810.00;;;;8214494;28;20199;-64
2023/05/25 15:51:03;;;;;;;7.72;3.85;;;;;28.30;96800.00;;;;8201220;28;20224;-66
2023/05/25 15:55:07;;;;;;;9.75;4.53;;;;;28.10;96804.00;;;;8209604;28;20303;-64
2023/05/25 15:59:14;;;;;;;7.15;4.10;;;;;28.00;96794.00;;;;8217115;28;20214;-66
2023/05/25 16:03:20;;;;;;;8.73;4.65;;;;;28.10;96792.00;;;;8213086;28;20235;-65
2023/05/25 16:07:25;;;;;;;6.25;3.97;;;;;28.10;96800.00;;;;8207138;28;20204;-66
2023/05/25 16:11:32;;;;;;;5.50;4.03;;;;;28.00;96800.00;;;;8219757;28;20231;-67
2023/05/25 16:15:35;;;;;;;10.70;4.47;;;;;28.00;96801.00;;;;8210863;28;20208;-68
2023/05/25 16:19:40;;;;;;;9.63;4.63;;;;;27.80;96800.00;;;;8205436;28;20654;-66
2023/05/25 16:23:50;;;;;;;11.38;4.55;;;;;27.70;96800.00;;;;8214897;28;20202;-64
2023/05/25 16:27:55;;;;;;;7.60;4.05;;;;;27.90;96798.00;;;;8224164;28;20286;-64
2023/05/25 16:31:58;;;;;;;8.80;4.65;;;;;28.10;96800.00;;;;8219265;28;20234;-65
2023/05/25 16:36:05;;;;;;;7.97;4.32;;;;;28.20;96798.00;;;;8215581;28;20204;-66
2023/05/25 16:40:10;;;;;;;8.60;4.22;;;;;27.90;96796.00;;;;8214982;28;20912;-64
2023/05/25 16:44:14;;;;;;;7.68;4.05;;;;;28.00;96789.00;;;;8227385;28;20564;-66
2023/05/25 16:48:19;;;;;;;7.13;4.10;;;;;28.10;96800.00;;;;8219169;28;20345;-67
2023/05/25 16:52:25;;;;;;;7.70;4.05;;;;;28.00;96790.00;;;;8200077;28;20688;-64
2023/05/25 16:56:31;;;;;;;6.97;4.70;;;;;27.90;96786.00;;;;8220101;28;20212;-65
2023/05/25 17:00:34;;;;;;;10.20;4.10;;;;;28.00;96792.00;;;;8224907;28;20207;-68
2023/05/25 17:04:37;;;;;;;6.47;4.07;;;;;28.00;96786.00;;;;8218367;28;20277;-66
2023/05/25 17:08:40;;;;;;;9.00;4.22;;;;;28.10;96793.00;;;;8219366;28;21182;-65
2023/05/25 17:12:44;;;;;;;8.02;4.90;;;;;27.90;96793.00;;;;8217244;28;20321;-64
2023/05/25 17:16:50;;;;;;;4.00;3.60;;;;;27.70;96792.00;;;;8215928;28;20212;-66
2023/05/25 17:20:53;;;;;;;10.43;4.10;;;;;27.70;96795.00;;;;8218313;28;20211;-63
2023/05/25 17:24:59;;;;;;;5.05;3.90;;;;;27.80;96791.00;;;;8215891;28;20218;-64
2023/05/25 17:29:04;;;;;;;4.70;3.80;;;;;27.80;96799.00;;;;8219979;28;20235;-66
2023/05/25 17:33:11;;;;;;;8.25;3.97;;;;;27.80;96797.00;;;;8217556;28;20266;-67
2023/05/25 17:37:17;;;;;;;9.23;4.10;;;;;27.70;96793.00;;;;8223094;28;20275;-64
2023/05/25 17:41:25;;;;;;;5.47;4.05;;;;;27.50;96793.00;;;;8219274;28;20260;-65
2023/05/25 17:45:29;;;;;;;9.75;3.95;;;;;27.60;96796.00;;;;8220198;28;20286;-65
2023/05/25 17:49:35;;;;;;;10.45;4.05;;;;;27.50;96804.00;;;;8216431;28;20573;-65
2023/05/25 17:53:38;;;;;;;6.65;3.97;;;;;27.00;96810.00;;;;8221747;28;20289;-70
2023/05/25 17:57:41;;;;;;;6.65;3.97;;;;;26.30;96807.00;;;;8216901;28;20229;-64
2023/05/25 18:01:48;;;;;;;8.55;4.38;;;;;25.60;96804.00;;;;8217294;28;20572;-66
2023/05/25 18:05:53;;;;;;;46.22;6.00;;;;;25.00;96807.00;;;;8216122;28;20294;-65
2023/05/25 18:09:56;;;;;;;12.00;3.90;;;;;24.60;96808.00;;;;8218714;28;20203;-66
2023/05/25 18:14:00;;;;;;;15.73;3.92;;;;;24.30;96807.00;;;;8212294;28;20231;-66
2023/05/25 18:18:07;;;;;;;9.80;3.40;;;;;23.90;96811.00;;;;8222368;28;20279;-64
2023/05/25 18:22:12;;;;;;;6.25;4.03;;;;;23.50;96816.00;;;;8223071;28;20270;-65
2023/05/25 18:26:15;;;;;;;5.93;3.80;;;;;23.20;96818.00;;;;8223457;28;20632;-64
2023/05/25 18:30:21;;;;;;;6.65;3.95;;;;;22.80;96815.00;;;;8213987;28;20284;-63
2023/05/25 18:34:29;;;;;;;9.52;4.18;;;;;22.50;96823.00;;;;8221708;28;20274;-63
2023/05/25 18:38:32;;;;;;;8.10;3.90;;;;;22.20;96815.00;;;;8213468;28;20211;-63
2023/05/25 18:42:51;;;;;;;4.53;3.67;;;;;21.80;96813.00;;;;8220482;28;20218;-65
2023/05/25 18:46:57;;;;;;;6.68;3.65;;;;;21.50;96818.00;;;;8214776;28;20203;-66
2023/05/25 18:51:02;;;;;;;4.65;3.45;;;;;21.20;96818.00;;;;8215026;28;20204;-64
2023/05/25 18:55:06;;;;;;;8.02;4.00;;;;;20.80;96816.00;;;;8219543;28;20232;-66
2023/05/25 18:59:09;;;;;;;8.25;4.35;;;;;20.40;96827.00;;;;8221253;28;20630;-68
2023/05/25 19:03:14;;;;;;;5.82;3.60;;;;;20.10;96834.00;;;;8219723;28;20227;-64
2023/05/25 19:07:23;;;;;;;5.43;3.72;;;;;19.70;96832.00;;;;8214304;28;20261;-65
2023/05/25 19:11:26;;;;;;;7.32;4.22;;;;;19.30;96835.00;;;;8221309;28;20208;-65
2023/05/25 19:15:30;;;;;;;6.38;4.03;;;;;19.00;96836.00;;;;8222464;28;20681;-68
2023/05/25 19:19:33;;;;;;;9.55;4.03;;;;;18.60;96841.00;;;;8211904;28;20235;-65
2023/05/25 19:23:45;;;;;;;8.27;4.53;;;;;18.30;96839.00;;;;8215784;28;20212;-64
2023/05/25 19:27:48;;;;;;;5.32;3.65;;;;;18.00;96842.00;;;;8218424;28;20212;-65
2023/05/25 19:31:52;;;;;;;6.43;4.05;;;;;17.80;96851.00;;;;8209424;28;20254;-66
2023/05/25 19:35:56;;;;;;;7.88;4.07;;;;;17.50;96854.00;;;;8218475;28;20212;-64
2023/05/25 19:40:01;;;;;;;7.70;4.05;;;;;17.30;96858.00;;;;8221249;28;20206;-64
2023/05/25 19:44:05;;;;;;;6.50;3.67;;;;;17.20;96854.00;;;;8215358;28;20297;-66
2023/05/25 19:48:19;;;;;;;7.40;4.68;;;;;17.10;96853.00;;;;8216386;28;20287;-67
2023/05/25 19:52:24;;;;;;;6.00;3.70;;;;;17.00;96855.00;;;;8217648;28;20227;-66
2023/05/25 19:56:32;;;;;;;11.98;4.75;;;;;16.90;96856.00;;;;8194523;28;20207;-63
2023/05/25 20:00:38;;;;;;;5.38;3.97;;;;;16.80;96854.00;;;;8213152;28;20210;-67
2023/05/25 20:04:43;;;;;;;6.28;3.97;;;;;16.70;96855.00;;;;8212299;28;20782;-67
2023/05/25 20:08:46;;;;;;;6.55;4.15;;;;;16.60;96858.00;;;;8202042;28;20208;-63
2023/05/25 20:12:51;;;;;;;8.98;4.65;;;;;16.50;96869.00;;;;8206391;28;20269;-65
2023/05/25 20:16:57;;;;;;;9.88;4.70;;;;;16.30;96873.00;;;;8217733;28;20619;-63
2023/05/25 20:21:00;;;;;;;18.33;4.53;;;;;16.20;96871.00;;;;8213066;28;20302;-65
2023/05/25 20:25:04;;;;;;;7.07;3.92;;;;;16.00;96877.00;;;;8207568;28;20267;-69